sensor_id;sensor_type;location;lat;lon;timestamp;pressure;altitude;pressure_sealevel;temperature;humidity
9415;BME280;4746;35.664;139.738;2023-04-29T00:02:20;100544.47;;;25.14;36.98
9415;BME280;4746;35.664;139.738;2023-04-29T00:04:47;100521.66;;;25.16;37.06
9415;BME280;4746;35.664;139.738;2023-04-29T00:07:15;100509.59;;;25.12;37.11
9415;BME280;4746;35.664;139.738;2023-04-29T00:09:42;100515.41;;;25.19;37.05
9415;BME280;4746;35.664;139.738;2023-04-29T00:12:10;100456.47;;;25.25;36.76
9415;BME280;4746;35.664;139.738;2023-04-29T00:14:37;100452.38;;;25.37;36.54
9415;BME280;4746;35.664;139.738;2023-04-29T00:17:05;100470.09;;;25.50;36.41
9415;BME280;4746;35.664;139.738;2023-04-29T00:19:33;100443.38;;;25.59;36.31
9415;BME280;4746;35.664;139.738;2023-04-29T00:22:01;100444.47;;;25.72;35.93
9415;BME280;4746;35.664;139.738;2023-04-29T00:24:28;100502.50;;;25.85;36.00
9415;BME280;4746;35.664;139.738;2023-04-29T00:26:56;100438.63;;;25.84;35.26
9415;BME280;4746;35.664;139.738;2023-04-29T00:29:23;100477.78;;;25.89;35.49
9415;BME280;4746;35.664;139.738;2023-04-29T00:31:51;100483.03;;;25.89;35.16
9415;BME280;4746;35.664;139.738;2023-04-29T00:34:18;100503.34;;;25.85;35.55
9415;BME280;4746;35.664;139.738;2023-04-29T00:36:46;100527.91;;;25.84;35.48
9415;BME280;4746;35.664;139.738;2023-04-29T00:39:14;100501.09;;;25.78;35.23
9415;BME280;4746;35.664;139.738;2023-04-29T00:41:42;100458.75;;;25.84;35.59
9415;BME280;4746;35.664;139.738;2023-04-29T00:44:10;100477.47;;;25.78;35.32
9415;BME280;4746;35.664;139.738;2023-04-29T00:46:37;100493.66;;;25.69;35.87
9415;BME280;4746;35.664;139.738;2023-04-29T00:49:05;100514.88;;;25.64;36.10
9415;BME280;4746;35.664;139.738;2023-04-29T00:51:36;100493.03;;;25.64;36.45
9415;BME280;4746;35.664;139.738;2023-04-29T00:54:04;100522.00;;;25.62;36.00
9415;BME280;4746;35.664;139.738;2023-04-29T00:56:35;100497.59;;;25.60;36.30
9415;BME280;4746;35.664;139.738;2023-04-29T00:59:03;100472.56;;;25.53;36.25
9415;BME280;4746;35.664;139.738;2023-04-29T01:01:35;100488.41;;;25.52;36.51
9415;BME280;4746;35.664;139.738;2023-04-29T01:04:05;100461.06;;;25.56;36.12
9415;BME280;4746;35.664;139.738;2023-04-29T01:07:03;100491.81;;;25.71;35.81
9415;BME280;4746;35.664;139.738;2023-04-29T01:10:04;100489.88;;;25.74;36.11
9415;BME280;4746;35.664;139.738;2023-04-29T01:13:08;100480.31;;;25.56;36.31
9415;BME280;4746;35.664;139.738;2023-04-29T01:18:28;100461.63;;;25.27;36.64
9415;BME280;4746;35.664;139.738;2023-04-29T01:20:59;100483.75;;;25.22;36.73
9415;BME280;4746;35.664;139.738;2023-04-29T01:23:28;100468.88;;;25.22;37.16
9415;BME280;4746;35.664;139.738;2023-04-29T01:25:57;100451.63;;;25.35;37.36
9415;BME280;4746;35.664;139.738;2023-04-29T01:29:08;100447.50;;;25.65;36.71
9415;BME280;4746;35.664;139.738;2023-04-29T01:32:15;100425.41;;;25.86;36.74
9415;BME280;4746;35.664;139.738;2023-04-29T01:35:10;100429.94;;;25.99;35.89
9415;BME280;4746;35.664;139.738;2023-04-29T01:38:16;100410.81;;;26.12;36.00
9415;BME280;4746;35.664;139.738;2023-04-29T01:43:38;100419.16;;;26.20;35.81
9415;BME280;4746;35.664;139.738;2023-04-29T01:46:17;100460.78;;;26.28;35.94
9415;BME280;4746;35.664;139.738;2023-04-29T01:48:45;100419.75;;;26.25;36.17
9415;BME280;4746;35.664;139.738;2023-04-29T01:51:14;100416.38;;;26.23;35.96
9415;BME280;4746;35.664;139.738;2023-04-29T01:53:41;100371.53;;;26.26;35.66
9415;BME280;4746;35.664;139.738;2023-04-29T01:56:09;100402.91;;;26.29;35.71
9415;BME280;4746;35.664;139.738;2023-04-29T01:58:36;100366.47;;;26.39;35.87
9415;BME280;4746;35.664;139.738;2023-04-29T02:01:04;100415.59;;;26.38;35.95
9415;BME280;4746;35.664;139.738;2023-04-29T02:03:32;100376.78;;;26.26;35.86
9415;BME280;4746;35.664;139.738;2023-04-29T02:06:00;100343.84;;;26.36;35.76
9415;BME280;4746;35.664;139.738;2023-04-29T02:08:28;100349.00;;;26.53;35.58
9415;BME280;4746;35.664;139.738;2023-04-29T02:10:58;100338.59;;;26.67;35.44
9415;BME280;4746;35.664;139.738;2023-04-29T02:13:26;100335.59;;;26.73;35.24
9415;BME280;4746;35.664;139.738;2023-04-29T02:15:54;100362.50;;;26.78;34.96
9415;BME280;4746;35.664;139.738;2023-04-29T02:18:21;100386.59;;;26.86;34.78
9415;BME280;4746;35.664;139.738;2023-04-29T02:20:49;100368.94;;;26.88;34.28
9415;BME280;4746;35.664;139.738;2023-04-29T02:23:17;100368.94;;;26.88;34.30
9415;BME280;4746;35.664;139.738;2023-04-29T02:25:45;100430.19;;;26.90;34.51
9415;BME280;4746;35.664;139.738;2023-04-29T02:28:12;100353.94;;;26.74;34.42
9415;BME280;4746;35.664;139.738;2023-04-29T02:30:40;100359.28;;;26.73;34.46
9415;BME280;4746;35.664;139.738;2023-04-29T02:33:07;100429.00;;;26.80;34.28
9415;BME280;4746;35.664;139.738;2023-04-29T02:35:35;100388.63;;;26.81;34.42
9415;BME280;4746;35.664;139.738;2023-04-29T02:38:03;100406.13;;;26.82;34.03
9415;BME280;4746;35.664;139.738;2023-04-29T02:40:30;100353.34;;;26.69;34.60
9415;BME280;4746;35.664;139.738;2023-04-29T02:42:58;100353.31;;;26.85;34.30
9415;BME280;4746;35.664;139.738;2023-04-29T02:45:27;100384.72;;;27.03;34.37
9415;BME280;4746;35.664;139.738;2023-04-29T02:47:54;100373.53;;;27.00;34.05
9415;BME280;4746;35.664;139.738;2023-04-29T02:50:22;100404.09;;;27.02;34.67
9415;BME280;4746;35.664;139.738;2023-04-29T02:52:51;100338.53;;;27.13;34.09
9415;BME280;4746;35.664;139.738;2023-04-29T02:55:18;100331.06;;;27.35;33.72
9415;BME280;4746;35.664;139.738;2023-04-29T02:57:46;100324.22;;;27.46;33.80
9415;BME280;4746;35.664;139.738;2023-04-29T03:00:14;100324.63;;;27.54;33.75
9415;BME280;4746;35.664;139.738;2023-04-29T03:02:42;100307.53;;;27.61;33.47
9415;BME280;4746;35.664;139.738;2023-04-29T03:05:09;100328.84;;;27.57;33.83
9415;BME280;4746;35.664;139.738;2023-04-29T03:07:37;100287.41;;;27.60;34.17
9415;BME280;4746;35.664;139.738;2023-04-29T03:10:06;100287.59;;;27.85;33.99
9415;BME280;4746;35.664;139.738;2023-04-29T03:12:33;100269.13;;;27.99;33.79
9415;BME280;4746;35.664;139.738;2023-04-29T03:15:01;100258.59;;;28.27;33.18
9415;BME280;4746;35.664;139.738;2023-04-29T03:17:30;100259.72;;;28.49;32.64
9415;BME280;4746;35.664;139.738;2023-04-29T03:19:59;100265.78;;;28.64;32.89
9415;BME280;4746;35.664;139.738;2023-04-29T03:22:27;100277.25;;;28.77;31.91
9415;BME280;4746;35.664;139.738;2023-04-29T03:24:54;100268.81;;;28.58;32.58
9415;BME280;4746;35.664;139.738;2023-04-29T03:27:22;100348.75;;;28.46;32.48
9415;BME280;4746;35.664;139.738;2023-04-29T03:29:49;100287.56;;;28.13;32.72
9415;BME280;4746;35.664;139.738;2023-04-29T03:32:17;100280.53;;;28.00;33.37
9415;BME280;4746;35.664;139.738;2023-04-29T03:34:44;100289.38;;;27.99;33.55
9415;BME280;4746;35.664;139.738;2023-04-29T03:37:12;100270.09;;;27.98;33.33
9415;BME280;4746;35.664;139.738;2023-04-29T03:39:39;100269.72;;;27.90;33.80
9415;BME280;4746;35.664;139.738;2023-04-29T03:42:07;100253.53;;;27.96;33.71
9415;BME280;4746;35.664;139.738;2023-04-29T03:44:34;100263.56;;;28.17;33.57
9415;BME280;4746;35.664;139.738;2023-04-29T03:47:02;100267.25;;;28.15;34.17
9415;BME280;4746;35.664;139.738;2023-04-29T03:49:29;100233.53;;;28.06;33.97
9415;BME280;4746;35.664;139.738;2023-04-29T03:51:57;100202.94;;;27.77;34.23
9415;BME280;4746;35.664;139.738;2023-04-29T03:54:24;100195.13;;;27.76;34.32
9415;BME280;4746;35.664;139.738;2023-04-29T03:56:52;100184.88;;;27.85;34.03
9415;BME280;4746;35.664;139.738;2023-04-29T03:59:20;100216.75;;;27.95;33.41
9415;BME280;4746;35.664;139.738;2023-04-29T04:01:47;100243.59;;;27.87;34.04
9415;BME280;4746;35.664;139.738;2023-04-29T04:04:15;100234.81;;;27.73;34.21
9415;BME280;4746;35.664;139.738;2023-04-29T04:06:43;100179.34;;;27.62;34.45
9415;BME280;4746;35.664;139.738;2023-04-29T04:09:19;100172.84;;;27.67;34.71
9415;BME280;4746;35.664;139.738;2023-04-29T04:11:46;100179.13;;;27.79;34.84
9415;BME280;4746;35.664;139.738;2023-04-29T04:14:14;100173.31;;;27.74;35.02
9415;BME280;4746;35.664;139.738;2023-04-29T04:16:42;100141.03;;;27.70;35.35
9415;BME280;4746;35.664;139.738;2023-04-29T04:19:09;100178.84;;;27.83;35.26
9415;BME280;4746;35.664;139.738;2023-04-29T04:21:37;100152.84;;;27.91;35.05
9415;BME280;4746;35.664;139.738;2023-04-29T04:24:05;100145.47;;;28.10;35.04
9415;BME280;4746;35.664;139.738;2023-04-29T04:26:33;100188.53;;;28.23;34.73
9415;BME280;4746;35.664;139.738;2023-04-29T04:29:00;100181.81;;;28.31;35.13
9415;BME280;4746;35.664;139.738;2023-04-29T04:31:28;100148.13;;;28.49;35.00
9415;BME280;4746;35.664;139.738;2023-04-29T04:33:56;100127.03;;;28.61;34.60
9415;BME280;4746;35.664;139.738;2023-04-29T04:36:25;100107.22;;;28.68;35.01
9415;BME280;4746;35.664;139.738;2023-04-29T04:38:53;100107.03;;;28.83;34.31
9415;BME280;4746;35.664;139.738;2023-04-29T04:41:20;100022.78;;;29.05;34.52
9415;BME280;4746;35.664;139.738;2023-04-29T04:43:47;100085.75;;;29.22;33.75
9415;BME280;4746;35.664;139.738;2023-04-29T04:46:15;100114.78;;;29.47;33.41
9415;BME280;4746;35.664;139.738;2023-04-29T04:48:43;100081.94;;;29.74;33.40
9415;BME280;4746;35.664;139.738;2023-04-29T04:51:12;100109.31;;;30.09;32.58
9415;BME280;4746;35.664;139.738;2023-04-29T04:53:40;100083.69;;;30.33;32.61
9415;BME280;4746;35.664;139.738;2023-04-29T04:56:08;100097.38;;;30.27;32.16
9415;BME280;4746;35.664;139.738;2023-04-29T04:58:35;100112.41;;;30.27;31.97
9415;BME280;4746;35.664;139.738;2023-04-29T05:01:03;100080.75;;;30.25;32.22
9415;BME280;4746;35.664;139.738;2023-04-29T05:03:30;100085.94;;;30.61;32.38
9415;BME280;4746;35.664;139.738;2023-04-29T05:06:00;100121.41;;;31.03;31.29
9415;BME280;4746;35.664;139.738;2023-04-29T05:08:27;100109.91;;;30.92;31.24
9415;BME280;4746;35.664;139.738;2023-04-29T05:10:55;100103.13;;;30.44;31.92
9415;BME280;4746;35.664;139.738;2023-04-29T05:13:24;100111.78;;;30.23;31.71
9415;BME280;4746;35.664;139.738;2023-04-29T05:15:51;100096.41;;;30.05;32.37
9415;BME280;4746;35.664;139.738;2023-04-29T05:18:19;100121.84;;;29.95;32.54
9415;BME280;4746;35.664;139.738;2023-04-29T05:20:47;100081.50;;;30.04;32.50
9415;BME280;4746;35.664;139.738;2023-04-29T05:23:14;100048.00;;;30.38;32.32
9415;BME280;4746;35.664;139.738;2023-04-29T05:25:42;100091.00;;;30.53;31.85
9415;BME280;4746;35.664;139.738;2023-04-29T05:28:09;100089.13;;;30.88;31.88
9415;BME280;4746;35.664;139.738;2023-04-29T05:30:37;100025.72;;;31.19;32.22
9415;BME280;4746;35.664;139.738;2023-04-29T05:33:04;100026.38;;;31.43;31.09
9415;BME280;4746;35.664;139.738;2023-04-29T05:35:32;100059.59;;;31.47;30.67
9415;BME280;4746;35.664;139.738;2023-04-29T05:37:59;100082.19;;;31.83;30.40
9415;BME280;4746;35.664;139.738;2023-04-29T05:40:27;100066.13;;;31.96;30.13
9415;BME280;4746;35.664;139.738;2023-04-29T05:42:54;100046.72;;;31.95;29.98
9415;BME280;4746;35.664;139.738;2023-04-29T05:45:22;100042.09;;;31.97;29.52
9415;BME280;4746;35.664;139.738;2023-04-29T05:47:49;100073.78;;;31.78;29.21
9415;BME280;4746;35.664;139.738;2023-04-29T05:50:17;100050.94;;;31.56;29.74
9415;BME280;4746;35.664;139.738;2023-04-29T05:52:44;100042.06;;;31.24;30.33
9415;BME280;4746;35.664;139.738;2023-04-29T05:55:12;100040.00;;;30.95;30.68
9415;BME280;4746;35.664;139.738;2023-04-29T05:57:39;99978.75;;;31.10;30.82
9415;BME280;4746;35.664;139.738;2023-04-29T06:00:08;100001.06;;;31.61;29.97
9415;BME280;4746;35.664;139.738;2023-04-29T06:02:35;100028.97;;;32.27;28.97
9415;BME280;4746;35.664;139.738;2023-04-29T06:05:06;100032.25;;;33.11;28.05
9415;BME280;4746;35.664;139.738;2023-04-29T06:07:33;99972.56;;;33.15;28.26
9415;BME280;4746;35.664;139.738;2023-04-29T06:10:01;99992.38;;;33.88;27.42
9415;BME280;4746;35.664;139.738;2023-04-29T06:12:29;99999.56;;;34.70;26.35
9415;BME280;4746;35.664;139.738;2023-04-29T06:14:56;99977.56;;;35.49;24.88
9415;BME280;4746;35.664;139.738;2023-04-29T06:17:24;99953.56;;;36.01;24.19
9415;BME280;4746;35.664;139.738;2023-04-29T06:19:57;99983.09;;;35.21;24.76
9415;BME280;4746;35.664;139.738;2023-04-29T06:22:24;99990.63;;;34.62;25.50
9415;BME280;4746;35.664;139.738;2023-04-29T06:24:52;99990.09;;;34.85;25.25
9415;BME280;4746;35.664;139.738;2023-04-29T06:27:19;99951.75;;;35.05;25.04
9415;BME280;4746;35.664;139.738;2023-04-29T06:29:47;99965.34;;;35.29;24.51
9415;BME280;4746;35.664;139.738;2023-04-29T06:32:14;99964.75;;;35.35;24.07
9415;BME280;4746;35.664;139.738;2023-04-29T06:34:42;99964.06;;;35.50;23.91
9415;BME280;4746;35.664;139.738;2023-04-29T06:37:11;99903.25;;;35.36;24.03
9415;BME280;4746;35.664;139.738;2023-04-29T06:39:39;99924.34;;;35.30;24.37
9415;BME280;4746;35.664;139.738;2023-04-29T06:42:06;99935.94;;;34.67;24.87
9415;BME280;4746;35.664;139.738;2023-04-29T06:44:34;99952.34;;;33.51;26.31
9415;BME280;4746;35.664;139.738;2023-04-29T06:47:01;99935.63;;;32.63;27.27
9415;BME280;4746;35.664;139.738;2023-04-29T06:49:29;99969.13;;;32.14;28.11
9415;BME280;4746;35.664;139.738;2023-04-29T06:51:56;99959.19;;;31.55;28.92
9415;BME280;4746;35.664;139.738;2023-04-29T06:54:25;99924.47;;;31.15;29.55
9415;BME280;4746;35.664;139.738;2023-04-29T06:56:54;99934.75;;;30.76;29.88
9415;BME280;4746;35.664;139.738;2023-04-29T06:59:22;99972.34;;;30.25;31.01
9415;BME280;4746;35.664;139.738;2023-04-29T07:01:49;99956.16;;;29.61;31.34
9415;BME280;4746;35.664;139.738;2023-04-29T07:04:17;99925.84;;;29.07;32.43
9415;BME280;4746;35.664;139.738;2023-04-29T07:06:45;99927.00;;;28.68;33.02
9415;BME280;4746;35.664;139.738;2023-04-29T07:09:13;99968.19;;;28.45;33.87
9415;BME280;4746;35.664;139.738;2023-04-29T07:11:41;99955.44;;;28.27;34.22
9415;BME280;4746;35.664;139.738;2023-04-29T07:14:08;99972.13;;;28.01;34.95
9415;BME280;4746;35.664;139.738;2023-04-29T07:16:36;99993.25;;;27.75;35.22
9415;BME280;4746;35.664;139.738;2023-04-29T07:19:03;99963.13;;;27.52;35.85
9415;BME280;4746;35.664;139.738;2023-04-29T07:21:31;99946.34;;;27.29;36.11
9415;BME280;4746;35.664;139.738;2023-04-29T07:23:58;99976.38;;;26.98;37.17
9415;BME280;4746;35.664;139.738;2023-04-29T07:26:28;99995.25;;;26.77;37.81
9415;BME280;4746;35.664;139.738;2023-04-29T07:28:55;99982.97;;;26.64;38.11
9415;BME280;4746;35.664;139.738;2023-04-29T07:31:23;99950.41;;;26.52;38.46
9415;BME280;4746;35.664;139.738;2023-04-29T07:33:50;99970.47;;;26.53;38.87
9415;BME280;4746;35.664;139.738;2023-04-29T07:36:19;99957.53;;;26.50;38.85
9415;BME280;4746;35.664;139.738;2023-04-29T07:38:47;99952.94;;;26.54;39.15
9415;BME280;4746;35.664;139.738;2023-04-29T07:41:15;99967.66;;;26.42;39.41
9415;BME280;4746;35.664;139.738;2023-04-29T07:43:42;99962.56;;;26.25;39.97
9415;BME280;4746;35.664;139.738;2023-04-29T07:46:11;99929.91;;;26.15;40.38
9415;BME280;4746;35.664;139.738;2023-04-29T07:48:39;99950.81;;;26.03;40.66
9415;BME280;4746;35.664;139.738;2023-04-29T07:51:12;99946.66;;;25.99;40.79
9415;BME280;4746;35.664;139.738;2023-04-29T07:53:40;99937.56;;;25.91;41.32
9415;BME280;4746;35.664;139.738;2023-04-29T07:56:08;99944.69;;;25.89;41.15
9415;BME280;4746;35.664;139.738;2023-04-29T07:58:36;99936.31;;;25.82;41.66
9415;BME280;4746;35.664;139.738;2023-04-29T08:01:10;99961.75;;;25.82;41.53
9415;BME280;4746;35.664;139.738;2023-04-29T08:03:38;99909.94;;;25.70;42.29
9415;BME280;4746;35.664;139.738;2023-04-29T08:06:06;99935.00;;;25.60;42.79
9415;BME280;4746;35.664;139.738;2023-04-29T08:08:33;99899.63;;;25.51;43.12
9415;BME280;4746;35.664;139.738;2023-04-29T08:11:01;99911.66;;;25.55;42.66
9415;BME280;4746;35.664;139.738;2023-04-29T08:13:29;99920.38;;;25.56;43.02
9415;BME280;4746;35.664;139.738;2023-04-29T08:15:57;99943.16;;;25.55;42.92
9415;BME280;4746;35.664;139.738;2023-04-29T08:18:24;99919.03;;;25.49;43.35
9415;BME280;4746;35.664;139.738;2023-04-29T08:20:52;99977.06;;;25.44;43.22
9415;BME280;4746;35.664;139.738;2023-04-29T08:23:19;99904.00;;;25.37;43.60
9415;BME280;4746;35.664;139.738;2023-04-29T08:25:47;99915.16;;;25.40;43.91
9415;BME280;4746;35.664;139.738;2023-04-29T08:28:17;99940.72;;;25.37;43.75
9415;BME280;4746;35.664;139.738;2023-04-29T08:30:45;99943.34;;;25.37;44.02
9415;BME280;4746;35.664;139.738;2023-04-29T08:33:13;99963.41;;;25.38;44.30
9415;BME280;4746;35.664;139.738;2023-04-29T08:35:41;99973.34;;;25.33;44.12
9415;BME280;4746;35.664;139.738;2023-04-29T08:38:09;99978.78;;;25.30;44.34
9415;BME280;4746;35.664;139.738;2023-04-29T08:40:43;99947.28;;;25.30;44.60
9415;BME280;4746;35.664;139.738;2023-04-29T08:43:14;99965.81;;;25.27;44.31
9415;BME280;4746;35.664;139.738;2023-04-29T08:45:43;99958.28;;;25.21;44.93
9415;BME280;4746;35.664;139.738;2023-04-29T08:48:11;99955.06;;;25.16;45.17
9415;BME280;4746;35.664;139.738;2023-04-29T08:50:41;99934.44;;;25.10;45.35
9415;BME280;4746;35.664;139.738;2023-04-29T08:53:13;99987.91;;;25.08;45.53
9415;BME280;4746;35.664;139.738;2023-04-29T08:55:46;99928.16;;;24.97;45.87
9415;BME280;4746;35.664;139.738;2023-04-29T08:58:15;99969.06;;;24.84;46.25
9415;BME280;4746;35.664;139.738;2023-04-29T09:00:44;99937.81;;;24.81;46.29
9415;BME280;4746;35.664;139.738;2023-04-29T09:05:45;99931.09;;;24.60;47.08
9415;BME280;4746;35.664;139.738;2023-04-29T09:08:16;99911.41;;;24.53;47.84
9415;BME280;4746;35.664;139.738;2023-04-29T09:10:44;99918.50;;;24.52;47.62
9415;BME280;4746;35.664;139.738;2023-04-29T09:13:27;99919.34;;;24.67;47.74
9415;BME280;4746;35.664;139.738;2023-04-29T09:15:55;99924.94;;;24.61;47.93
9415;BME280;4746;35.664;139.738;2023-04-29T09:18:50;99933.38;;;24.66;47.75
9415;BME280;4746;35.664;139.738;2023-04-29T09:21:37;99919.69;;;24.61;47.93
9415;BME280;4746;35.664;139.738;2023-04-29T09:24:05;99921.94;;;24.52;48.46
9415;BME280;4746;35.664;139.738;2023-04-29T09:26:51;99967.19;;;24.55;47.79
9415;BME280;4746;35.664;139.738;2023-04-29T09:29:19;99918.97;;;24.43;48.38
9415;BME280;4746;35.664;139.738;2023-04-29T09:31:47;99928.53;;;24.44;48.35
9415;BME280;4746;35.664;139.738;2023-04-29T09:34:15;99913.88;;;24.40;48.88
9415;BME280;4746;35.664;139.738;2023-04-29T09:36:48;99898.88;;;24.43;48.45
9415;BME280;4746;35.664;139.738;2023-04-29T09:39:22;99914.81;;;24.39;48.78
9415;BME280;4746;35.664;139.738;2023-04-29T09:44:23;99932.16;;;24.41;49.02
9415;BME280;4746;35.664;139.738;2023-04-29T09:47:06;99937.47;;;24.40;49.00
9415;BME280;4746;35.664;139.738;2023-04-29T09:49:38;99915.63;;;24.41;49.05
9415;BME280;4746;35.664;139.738;2023-04-29T09:52:14;99945.31;;;24.40;48.88
9415;BME280;4746;35.664;139.738;2023-04-29T09:54:43;99935.03;;;24.37;48.87
9415;BME280;4746;35.664;139.738;2023-04-29T09:57:14;99909.16;;;24.31;49.10
9415;BME280;4746;35.664;139.738;2023-04-29T09:59:42;99908.28;;;24.30;49.60
9415;BME280;4746;35.664;139.738;2023-04-29T10:02:17;99895.78;;;24.35;49.00
9415;BME280;4746;35.664;139.738;2023-04-29T10:04:52;99949.19;;;24.33;48.97
9415;BME280;4746;35.664;139.738;2023-04-29T10:07:25;99916.22;;;24.29;48.95
9415;BME280;4746;35.664;139.738;2023-04-29T10:09:55;99940.72;;;24.28;49.32
9415;BME280;4746;35.664;139.738;2023-04-29T10:12:35;99932.88;;;24.28;48.73
9415;BME280;4746;35.664;139.738;2023-04-29T10:17:57;99943.06;;;24.17;48.69
9415;BME280;4746;35.664;139.738;2023-04-29T10:20:26;99931.13;;;24.11;49.21
9415;BME280;4746;35.664;139.738;2023-04-29T10:22:55;99913.66;;;24.12;49.16
9415;BME280;4746;35.664;139.738;2023-04-29T10:25:25;99907.41;;;24.14;49.09
9415;BME280;4746;35.664;139.738;2023-04-29T10:27:55;99911.31;;;24.23;48.50
9415;BME280;4746;35.664;139.738;2023-04-29T10:30:24;99912.16;;;24.23;48.32
9415;BME280;4746;35.664;139.738;2023-04-29T10:32:52;99899.00;;;24.25;48.45
9415;BME280;4746;35.664;139.738;2023-04-29T10:35:21;99945.69;;;24.17;48.26
9415;BME280;4746;35.664;139.738;2023-04-29T10:37:52;99918.72;;;24.15;48.22
9415;BME280;4746;35.664;139.738;2023-04-29T10:40:39;99983.13;;;24.19;48.16
9415;BME280;4746;35.664;139.738;2023-04-29T10:43:08;99979.03;;;24.13;48.27
9415;BME280;4746;35.664;139.738;2023-04-29T10:45:35;99936.31;;;24.13;48.28
9415;BME280;4746;35.664;139.738;2023-04-29T10:48:07;99937.13;;;24.13;48.10
9415;BME280;4746;35.664;139.738;2023-04-29T10:53:18;99974.00;;;24.26;47.70
9415;BME280;4746;35.664;139.738;2023-04-29T10:55:58;99913.00;;;24.24;47.65
9415;BME280;4746;35.664;139.738;2023-04-29T10:58:52;99897.81;;;24.30;47.42
9415;BME280;4746;35.664;139.738;2023-04-29T11:01:50;99943.25;;;24.29;46.99
9415;BME280;4746;35.664;139.738;2023-04-29T11:04:20;99864.28;;;24.21;47.38
9415;BME280;4746;35.664;139.738;2023-04-29T11:06:55;99954.91;;;24.24;47.54
9415;BME280;4746;35.664;139.738;2023-04-29T11:09:29;99917.56;;;24.20;47.92
9415;BME280;4746;35.664;139.738;2023-04-29T11:12:02;99925.25;;;24.23;47.45
9415;BME280;4746;35.664;139.738;2023-04-29T11:14:45;99917.34;;;24.25;47.38
9415;BME280;4746;35.664;139.738;2023-04-29T11:17:17;99909.63;;;24.22;47.65
9415;BME280;4746;35.664;139.738;2023-04-29T11:19:50;99914.72;;;24.25;47.83
9415;BME280;4746;35.664;139.738;2023-04-29T11:22:25;99898.81;;;24.28;48.04
9415;BME280;4746;35.664;139.738;2023-04-29T11:25:00;99920.88;;;24.24;47.94
9415;BME280;4746;35.664;139.738;2023-04-29T11:27:39;99942.25;;;24.32;47.56
9415;BME280;4746;35.664;139.738;2023-04-29T11:30:09;99928.72;;;24.24;47.81
9415;BME280;4746;35.664;139.738;2023-04-29T11:32:40;99913.75;;;24.26;47.56
9415;BME280;4746;35.664;139.738;2023-04-29T11:35:15;99918.84;;;24.29;47.91
9415;BME280;4746;35.664;139.738;2023-04-29T11:37:44;99911.13;;;24.26;47.70
9415;BME280;4746;35.664;139.738;2023-04-29T11:40:13;99894.50;;;24.27;48.11
9415;BME280;4746;35.664;139.738;2023-04-29T11:42:46;99890.19;;;24.26;48.22
9415;BME280;4746;35.664;139.738;2023-04-29T11:45:16;99901.75;;;24.22;48.45
9415;BME280;4746;35.664;139.738;2023-04-29T11:47:46;99892.38;;;24.18;48.59
9415;BME280;4746;35.664;139.738;2023-04-29T11:50:15;99855.72;;;24.18;48.90
9415;BME280;4746;35.664;139.738;2023-04-29T11:52:47;99871.44;;;24.18;48.70
9415;BME280;4746;35.664;139.738;2023-04-29T11:55:15;99870.75;;;24.14;49.34
9415;BME280;4746;35.664;139.738;2023-04-29T11:57:43;99872.59;;;24.12;49.13
9415;BME280;4746;35.664;139.738;2023-04-29T12:00:12;99857.91;;;24.10;48.57
9415;BME280;4746;35.664;139.738;2023-04-29T12:02:44;99906.81;;;24.09;48.77
9415;BME280;4746;35.664;139.738;2023-04-29T12:05:13;99870.53;;;24.02;49.05
9415;BME280;4746;35.664;139.738;2023-04-29T12:07:43;99866.16;;;24.02;49.26
9415;BME280;4746;35.664;139.738;2023-04-29T12:10:12;99834.22;;;23.96;49.79
9415;BME280;4746;35.664;139.738;2023-04-29T12:12:40;99839.44;;;23.96;49.56
9415;BME280;4746;35.664;139.738;2023-04-29T12:15:13;99840.22;;;23.98;49.75
9415;BME280;4746;35.664;139.738;2023-04-29T12:17:41;99826.34;;;23.96;50.13
9415;BME280;4746;35.664;139.738;2023-04-29T12:20:10;99874.75;;;23.89;49.92
9415;BME280;4746;35.664;139.738;2023-04-29T12:22:38;99850.25;;;23.90;50.17
9415;BME280;4746;35.664;139.738;2023-04-29T12:25:10;99843.34;;;23.89;50.63
9415;BME280;4746;35.664;139.738;2023-04-29T12:27:40;99859.88;;;23.89;50.48
9415;BME280;4746;35.664;139.738;2023-04-29T12:30:09;99833.00;;;23.86;50.37
9415;BME280;4746;35.664;139.738;2023-04-29T12:32:38;99891.50;;;23.85;50.35
9415;BME280;4746;35.664;139.738;2023-04-29T12:35:14;99820.63;;;23.89;50.10
9415;BME280;4746;35.664;139.738;2023-04-29T12:37:50;99826.84;;;23.87;50.19
9415;BME280;4746;35.664;139.738;2023-04-29T12:40:18;99858.25;;;23.87;50.43
9415;BME280;4746;35.664;139.738;2023-04-29T12:42:46;99821.53;;;23.88;50.05
9415;BME280;4746;35.664;139.738;2023-04-29T12:45:31;99828.97;;;23.96;49.94
9415;BME280;4746;35.664;139.738;2023-04-29T12:48:01;99854.03;;;23.84;50.17
9415;BME280;4746;35.664;139.738;2023-04-29T12:50:34;99812.06;;;23.86;50.60
9415;BME280;4746;35.664;139.738;2023-04-29T12:53:06;99815.63;;;23.85;50.66
9415;BME280;4746;35.664;139.738;2023-04-29T12:55:35;99876.75;;;23.84;50.68
9415;BME280;4746;35.664;139.738;2023-04-29T12:58:06;99824.47;;;23.82;50.71
9415;BME280;4746;35.664;139.738;2023-04-29T13:00:35;99808.94;;;23.80;50.92
9415;BME280;4746;35.664;139.738;2023-04-29T13:03:03;99801.94;;;23.80;50.67
9415;BME280;4746;35.664;139.738;2023-04-29T13:05:31;99805.31;;;23.82;50.81
9415;BME280;4746;35.664;139.738;2023-04-29T13:07:59;99810.38;;;23.85;50.67
9415;BME280;4746;35.664;139.738;2023-04-29T13:10:26;99787.78;;;23.84;50.81
9415;BME280;4746;35.664;139.738;2023-04-29T13:12:54;99794.69;;;23.85;50.63
9415;BME280;4746;35.664;139.738;2023-04-29T13:15:22;99807.75;;;23.85;50.76
9415;BME280;4746;35.664;139.738;2023-04-29T13:17:50;99792.06;;;23.85;51.06
9415;BME280;4746;35.664;139.738;2023-04-29T13:20:17;99810.31;;;23.86;51.46
9415;BME280;4746;35.664;139.738;2023-04-29T13:22:45;99818.22;;;23.85;51.03
9415;BME280;4746;35.664;139.738;2023-04-29T13:25:13;99792.25;;;23.82;51.56
9415;BME280;4746;35.664;139.738;2023-04-29T13:27:43;99811.72;;;23.60;51.97